createdAt,value
2019-04-07T00:00:23.380Z,76.54
2019-04-07T00:02:31.477Z,76.55
2019-04-07T00:04:39.859Z,76.77
2019-04-07T00:06:47.779Z,76.94
2019-04-07T00:08:55.711Z,77.14
2019-04-07T00:11:03.713Z,77.06
2019-04-07T00:13:11.417Z,77.13
2019-04-07T00:15:19.200Z,77.16
2019-04-07T00:17:28.574Z,77.29
2019-04-07T00:19:38.072Z,78.12
2019-04-07T00:21:45.940Z,77.94
2019-04-07T00:23:54.320Z,77.88
2019-04-07T00:26:02.279Z,78.24
2019-04-07T00:28:10.153Z,78.26
2019-04-07T00:30:18.069Z,78.09
2019-04-07T00:32:25.888Z,78.15
2019-04-07T00:34:33.568Z,77.99
2019-04-07T00:36:41.329Z,77.96
2019-04-07T00:38:49.141Z,77.82
2019-04-07T00:40:56.925Z,77.76
2019-04-07T00:43:05.599Z,77.81
2019-04-07T00:45:14.121Z,77.66
2019-04-07T00:47:22.076Z,77.72
2019-04-07T00:49:29.821Z,77.34
2019-04-07T00:51:37.586Z,77.13
2019-04-07T00:53:45.467Z,77.07
2019-04-07T00:55:53.277Z,77.11
2019-04-07T00:58:01.673Z,77.33
2019-04-07T01:00:16.500Z,77.06
2019-04-07T01:02:24.408Z,77.04
2019-04-07T01:04:32.436Z,76.93
2019-04-07T01:06:40.630Z,76.87
2019-04-07T01:08:49.012Z,76.87
2019-04-07T01:10:57.025Z,76.84
2019-04-07T01:13:06.538Z,76.94
2019-04-07T01:15:15.116Z,76.74
2019-04-07T01:17:24.161Z,76.75
2019-04-07T01:19:34.422Z,77.08
2019-04-07T01:21:42.248Z,77.03
2019-04-07T01:23:50.218Z,76.99
2019-04-07T01:25:58.548Z,76.98
2019-04-07T01:28:06.652Z,76.85
2019-04-07T01:30:16.101Z,76.67
2019-04-07T01:32:24.107Z,76.49
2019-04-07T01:34:31.878Z,76.43
2019-04-07T01:36:39.646Z,76.49
2019-04-07T01:38:47.489Z,75.95
2019-04-07T01:41:03.128Z,75.78
2019-04-07T01:43:16.229Z,75.56
2019-04-07T01:45:29.091Z,75.63
2019-04-07T01:47:52.339Z,75.85
2019-04-07T01:50:04.728Z,76.36
2019-04-07T01:52:19.672Z,76.35
2019-04-07T01:54:29.029Z,76.29
2019-04-07T01:56:41.628Z,76.12
2019-04-07T01:58:57.345Z,76.48
2019-04-07T02:01:09.596Z,76.35
2019-04-07T02:03:25.357Z,76.25
2019-04-07T02:05:33.150Z,76.40
2019-04-07T02:07:59.245Z,76.28
2019-04-07T02:10:10.864Z,76.38
2019-04-07T02:12:26.819Z,76.47
2019-04-07T02:14:36.761Z,76.63
2019-04-07T02:16:56.544Z,76.77
2019-04-07T02:19:15.116Z,76.87
2019-04-07T02:21:24.988Z,76.93
2019-04-07T02:23:49.799Z,77.04
2019-04-07T02:25:59.322Z,77.15
2019-04-07T02:28:14.481Z,77.04
2019-04-07T02:30:27.211Z,77.15
2019-04-07T02:32:42.617Z,77.29
2019-04-07T02:35:03.628Z,77.40
2019-04-07T02:37:26.634Z,77.53
2019-04-07T02:39:42.270Z,77.47
2019-04-07T02:41:50.303Z,77.30
2019-04-07T02:44:02.860Z,77.25
2019-04-07T02:46:27.501Z,77.17
2019-04-07T02:48:41.323Z,77.10
2019-04-07T02:50:54.860Z,76.98
2019-04-07T02:53:05.725Z,76.85
2019-04-07T02:55:30.184Z,76.73
2019-04-07T02:57:48.793Z,76.81
2019-04-07T02:59:58.258Z,76.65
2019-04-07T03:02:06.214Z,76.64
2019-04-07T03:04:19.109Z,76.76
2019-04-07T03:06:49.761Z,76.80
2019-04-07T03:08:57.787Z,76.82
2019-04-07T03:11:20.137Z,76.87
2019-04-07T03:13:35.057Z,77.00
2019-04-07T03:15:48.407Z,77.08
2019-04-07T03:17:56.135Z,77.09
2019-04-07T03:20:18.737Z,77.11
2019-04-07T03:22:27.437Z,77.11
2019-04-07T03:24:34.981Z,77.11
2019-04-07T03:27:00.841Z,77.16
2019-04-07T03:29:11.839Z,77.22
2019-04-07T03:31:27.299Z,77.14
2019-04-07T03:33:43.064Z,77.14
2019-04-07T03:35:53.125Z,77.21
2019-04-07T03:38:02.016Z,77.29
2019-04-07T03:40:28.039Z,77.37
2019-04-07T03:42:43.693Z,77.43
2019-04-07T03:44:56.675Z,77.44
2019-04-07T03:47:09.163Z,77.55
2019-04-07T03:49:23.469Z,77.71
2019-04-07T03:51:33.153Z,77.66
2019-04-07T03:53:59.457Z,77.66
2019-04-07T03:56:11.718Z,77.67
2019-04-07T03:58:37.739Z,77.66
2019-04-07T04:01:13.707Z,77.79
2019-04-07T04:03:40.608Z,77.86
2019-04-07T04:05:59.636Z,77.90
2019-04-07T04:08:09.456Z,78.08
2019-04-07T04:10:34.410Z,78.18
2019-04-07T04:12:51.242Z,78.35
2019-04-07T04:15:03.715Z,78.36
2019-04-07T04:17:11.717Z,78.39
2019-04-07T04:19:19.486Z,78.45
2019-04-07T04:21:28.979Z,78.44
2019-04-07T04:23:42.707Z,78.42
2019-04-07T04:25:49.108Z,78.33
2019-04-07T04:27:57.020Z,78.29
2019-04-07T04:30:07.933Z,78.62
2019-04-07T04:32:16.689Z,78.47
2019-04-07T04:34:25.117Z,78.31
2019-04-07T04:36:33.489Z,78.17
2019-04-07T04:38:41.391Z,78.08
2019-04-07T04:40:49.424Z,77.98
2019-04-07T04:42:58.209Z,77.90
2019-04-07T04:45:08.480Z,77.94
2019-04-07T04:47:16.708Z,77.94
2019-04-07T04:49:24.476Z,77.76
2019-04-07T04:51:35.464Z,77.95
2019-04-07T04:53:42.373Z,77.91
2019-04-07T04:55:50.345Z,77.79
2019-04-07T04:57:58.547Z,77.54
2019-04-07T05:00:08.257Z,77.37
2019-04-07T05:02:17.041Z,77.26
2019-04-07T05:04:24.852Z,77.24
2019-04-07T05:06:33.174Z,77.15
2019-04-07T05:08:43.367Z,77.02
2019-04-07T05:10:51.067Z,76.87
2019-04-07T05:12:58.938Z,76.67
2019-04-07T05:15:09.711Z,76.62
2019-04-07T05:17:17.466Z,76.62
2019-04-07T05:19:25.251Z,76.67
2019-04-07T05:21:33.083Z,76.84
2019-04-07T05:23:41.679Z,76.87
2019-04-07T05:25:49.451Z,76.88
2019-04-07T05:27:58.632Z,76.73
2019-04-07T05:30:10.181Z,76.64
2019-04-07T05:32:17.857Z,76.62
2019-04-07T05:34:25.797Z,76.64
2019-04-07T05:36:33.803Z,76.49
2019-04-07T05:38:42.061Z,76.28
2019-04-07T05:40:51.041Z,76.00
2019-04-07T05:42:58.803Z,75.84
2019-04-07T05:45:08.268Z,75.69
2019-04-07T05:47:16.513Z,75.45
2019-04-07T05:49:24.423Z,74.87
2019-04-07T05:51:32.736Z,74.63
2019-04-07T05:53:42.218Z,75.43
2019-04-07T05:55:53.819Z,74.91
2019-04-07T05:58:03.462Z,74.71
2019-04-07T06:00:16.323Z,74.63
2019-04-07T06:02:23.499Z,74.54
2019-04-07T06:04:31.533Z,74.12
2019-04-07T06:06:41.879Z,73.95
2019-04-07T06:08:49.788Z,73.57
2019-04-07T06:11:00.425Z,73.06
2019-04-07T06:13:07.089Z,73.36
2019-04-07T06:15:19.286Z,73.02
2019-04-07T06:17:26.325Z,72.50
2019-04-07T06:19:37.370Z,72.29
2019-04-07T06:21:46.050Z,72.58
2019-04-07T06:23:58.418Z,72.65
2019-04-07T06:26:09.310Z,72.44
2019-04-07T06:28:17.432Z,72.65
2019-04-07T06:30:28.070Z,72.99
2019-04-07T06:32:36.163Z,73.40
2019-04-07T06:34:44.426Z,72.81
2019-04-07T06:36:55.238Z,72.57
2019-04-07T06:39:02.443Z,72.63
2019-04-07T06:41:10.463Z,72.64
2019-04-07T06:43:18.734Z,72.91
2019-04-07T06:45:35.057Z,71.92
2019-04-07T06:47:50.784Z,71.53
2019-04-07T06:50:10.312Z,71.23
2019-04-07T06:52:40.595Z,71.04
2019-04-07T06:55:03.396Z,70.70
2019-04-07T06:57:12.843Z,71.81
2019-04-07T06:59:25.251Z,72.01
2019-04-07T07:01:38.345Z,71.95
2019-04-07T07:04:08.590Z,72.42
2019-04-07T07:06:17.388Z,71.42
2019-04-07T07:08:46.417Z,71.05
2019-04-07T07:11:10.575Z,71.35
2019-04-07T07:13:31.301Z,71.53
2019-04-07T07:15:54.021Z,71.31
2019-04-07T07:18:04.752Z,70.41
2019-04-07T07:20:12.475Z,70.24
2019-04-07T07:22:32.134Z,70.06
2019-04-07T07:24:40.450Z,70.05
2019-04-07T07:26:48.386Z,71.28
2019-04-07T07:28:56.290Z,71.07
2019-04-07T07:31:04.359Z,71.41
2019-04-07T07:33:13.628Z,72.20
2019-04-07T07:35:21.464Z,71.54
2019-04-07T07:37:30.053Z,70.68
2019-04-07T07:39:42.119Z,69.59
2019-04-07T07:41:51.678Z,68.76
2019-04-07T07:44:03.185Z,67.94
2019-04-07T07:46:07.727Z,68.10
2019-04-07T07:48:16.298Z,67.67
2019-04-07T07:50:24.563Z,66.92
2019-04-07T07:52:32.999Z,66.44
2019-04-07T07:54:42.398Z,66.63
2019-04-07T07:56:51.647Z,66.93
2019-04-07T07:59:01.801Z,67.27
2019-04-07T08:01:12.278Z,67.33
2019-04-07T08:03:22.646Z,66.56
2019-04-07T08:05:31.743Z,65.42
2019-04-07T08:07:44.355Z,63.74
2019-04-07T08:09:49.185Z,64.74
2019-04-07T08:11:57.038Z,66.27
2019-04-07T08:14:05.599Z,65.28
2019-04-07T08:16:14.071Z,65.56
2019-04-07T08:18:21.860Z,66.71
2019-04-07T08:20:29.751Z,66.20
2019-04-07T08:22:42.910Z,66.02
2019-04-07T08:24:51.175Z,65.53
2019-04-07T08:27:00.082Z,65.41
2019-04-07T08:29:08.756Z,64.93
2019-04-07T08:31:21.260Z,63.22
2019-04-07T08:33:29.500Z,61.72
2019-04-07T08:35:39.445Z,61.93
2019-04-07T08:37:48.128Z,61.06
2019-04-07T08:39:57.047Z,60.47
2019-04-07T08:42:09.822Z,59.86
2019-04-07T08:44:14.995Z,59.88
2019-04-07T08:46:22.920Z,60.12
2019-04-07T08:48:30.857Z,60.46
2019-04-07T08:50:38.729Z,60.87
2019-04-07T08:52:46.725Z,60.99
2019-04-07T08:54:54.385Z,61.74
2019-04-07T08:57:02.308Z,62.34
2019-04-07T08:59:12.206Z,61.85
2019-04-07T09:01:21.076Z,61.63
2019-04-07T09:03:29.298Z,61.60
2019-04-07T09:05:37.268Z,61.57
2019-04-07T09:07:46.220Z,60.98
2019-04-07T09:09:54.457Z,61.25
2019-04-07T09:12:02.538Z,60.42
2019-04-07T09:14:10.503Z,59.97
2019-04-07T09:16:21.174Z,60.07
2019-04-07T09:18:36.713Z,59.33
2019-04-07T09:20:49.080Z,60.67
2019-04-07T09:23:01.732Z,62.63
2019-04-07T09:25:21.456Z,63.66
2019-04-07T09:27:38.188Z,63.96
2019-04-07T09:29:55.780Z,64.04
2019-04-07T09:32:23.772Z,62.55
2019-04-07T09:34:35.994Z,62.35
2019-04-07T09:36:47.910Z,62.36
2019-04-07T09:38:58.001Z,61.82
2019-04-07T09:41:06.232Z,60.83
2019-04-07T09:43:26.251Z,59.96
2019-04-07T09:45:39.384Z,59.81
2019-04-07T09:47:51.190Z,59.38
2019-04-07T09:50:17.454Z,60.11
2019-04-07T09:52:45.120Z,61.93
2019-04-07T09:54:58.730Z,62.43
2019-04-07T09:57:24.801Z,62.42
2019-04-07T09:59:53.508Z,62.84
2019-04-07T10:02:18.522Z,63.07
2019-04-07T10:04:28.065Z,63.75
2019-04-07T10:06:39.914Z,63.36
2019-04-07T10:08:53.303Z,63.77
2019-04-07T10:11:13.019Z,63.54
2019-04-07T10:13:22.823Z,63.25
2019-04-07T10:15:51.025Z,63.89
2019-04-07T10:17:59.784Z,63.93
2019-04-07T10:20:12.383Z,63.76
2019-04-07T10:22:39.883Z,63.28
2019-04-07T10:24:53.859Z,63.66
2019-04-07T10:27:08.094Z,62.94
2019-04-07T10:29:20.565Z,62.87
2019-04-07T10:31:37.823Z,61.10
2019-04-07T10:33:56.309Z,61.86
2019-04-07T10:36:06.022Z,60.48
2019-04-07T10:38:32.741Z,59.93
2019-04-07T10:40:59.459Z,59.84
2019-04-07T10:43:18.422Z,59.86
2019-04-07T10:45:28.431Z,60.02
2019-04-07T10:47:53.337Z,58.32
2019-04-07T10:50:12.233Z,57.59
2019-04-07T10:52:37.804Z,57.71
2019-04-07T10:54:51.639Z,58.28
2019-04-07T10:57:01.038Z,57.62
2019-04-07T10:59:25.600Z,57.95
2019-04-07T11:01:36.210Z,56.67
2019-04-07T11:03:46.849Z,55.12
2019-04-07T11:06:12.713Z,54.40
2019-04-07T11:08:28.770Z,54.42
2019-04-07T11:10:39.623Z,52.59
2019-04-07T11:12:58.215Z,52.94
2019-04-07T11:15:11.030Z,52.15
2019-04-07T11:17:29.308Z,51.64
2019-04-07T11:19:51.347Z,51.89
2019-04-07T11:22:18.758Z,52.47
2019-04-07T11:24:31.290Z,53.14
2019-04-07T11:26:45.437Z,51.58
2019-04-07T11:29:07.170Z,51.04
2019-04-07T11:31:25.619Z,51.02
2019-04-07T11:33:38.052Z,50.08
2019-04-07T11:35:47.651Z,51.29
2019-04-07T11:38:09.289Z,50.90
2019-04-07T11:40:42.050Z,49.80
2019-04-07T11:42:55.714Z,49.09
2019-04-07T11:45:04.966Z,50.34
2019-04-07T11:47:25.673Z,51.11
2019-04-07T11:49:35.763Z,50.71
2019-04-07T11:51:45.199Z,54.03
2019-04-07T11:53:57.782Z,57.94
2019-04-07T11:56:24.894Z,59.23
2019-04-07T11:58:46.713Z,59.85
2019-04-07T12:00:54.685Z,60.48
2019-04-07T12:03:10.605Z,60.22
2019-04-07T12:05:23.450Z,60.33
2019-04-07T12:07:53.896Z,59.65
2019-04-07T12:09:59.986Z,59.42
2019-04-07T12:12:27.794Z,59.98
2019-04-07T12:14:45.512Z,58.99
2019-04-07T12:17:12.603Z,58.29
2019-04-07T12:19:31.067Z,59.00
2019-04-07T12:21:40.659Z,58.20
2019-04-07T12:23:50.512Z,57.82
2019-04-07T12:26:04.466Z,57.96
2019-04-07T12:28:28.688Z,58.02
2019-04-07T12:30:41.507Z,58.08
2019-04-07T12:32:54.104Z,57.25
2019-04-07T12:35:02.101Z,56.75
2019-04-07T12:37:18.754Z,55.76
2019-04-07T12:39:28.875Z,55.27
2019-04-07T12:41:56.157Z,55.03
2019-04-07T12:44:10.413Z,54.21
2019-04-07T12:46:36.497Z,54.17
2019-04-07T12:48:48.765Z,54.68
2019-04-07T12:50:56.380Z,53.53
2019-04-07T12:53:10.197Z,53.10
2019-04-07T12:55:32.578Z,52.62
2019-04-07T12:57:58.829Z,51.28
2019-04-07T13:00:13.537Z,51.86
2019-04-07T13:02:38.192Z,51.50
2019-04-07T13:04:59.705Z,51.80
2019-04-07T13:07:08.943Z,52.13
2019-04-07T13:09:33.057Z,51.69
2019-04-07T13:12:00.012Z,51.22
2019-04-07T13:14:24.537Z,50.45
2019-04-07T13:16:37.959Z,50.66
2019-04-07T13:19:09.354Z,49.83
2019-04-07T13:21:24.774Z,50.21
2019-04-07T13:23:40.279Z,49.11
2019-04-07T13:26:01.008Z,50.18
2019-04-07T13:28:14.169Z,50.08
2019-04-07T13:30:27.122Z,49.96
2019-04-07T13:32:41.633Z,49.38
2019-04-07T13:34:49.949Z,49.04
2019-04-07T13:36:58.009Z,49.15
2019-04-07T13:39:22.125Z,48.55
2019-04-07T13:41:45.894Z,48.17
2019-04-07T13:43:55.996Z,47.88
2019-04-07T13:46:18.203Z,47.69
2019-04-07T13:48:20.912Z,48.30
2019-04-07T13:50:49.420Z,48.23
2019-04-07T13:52:59.079Z,48.23
2019-04-07T13:55:16.485Z,48.42
2019-04-07T13:57:40.402Z,48.39
2019-04-07T13:59:54.762Z,48.32
2019-04-07T14:02:16.313Z,48.23
2019-04-07T14:04:37.527Z,49.68
2019-04-07T14:06:53.247Z,50.11
2019-04-07T14:09:04.186Z,48.96
2019-04-07T14:11:31.131Z,48.03
2019-04-07T14:13:43.193Z,48.23
2019-04-07T14:16:09.501Z,47.48
2019-04-07T14:18:24.488Z,47.32
2019-04-07T14:20:34.665Z,47.50
2019-04-07T14:23:00.947Z,47.33
2019-04-07T14:25:27.934Z,47.14
2019-04-07T14:27:47.319Z,47.02
2019-04-07T14:29:55.930Z,46.49
2019-04-07T14:32:13.106Z,47.01
2019-04-07T14:34:23.477Z,47.78
2019-04-07T14:36:51.097Z,47.47
2019-04-07T14:38:58.707Z,47.65
2019-04-07T14:41:16.077Z,47.28
2019-04-07T14:43:28.527Z,47.56
2019-04-07T14:45:55.664Z,47.90
2019-04-07T14:48:05.420Z,47.88
2019-04-07T14:50:18.971Z,47.89
2019-04-07T14:52:26.812Z,47.84
2019-04-07T14:54:56.973Z,48.20
2019-04-07T14:57:19.866Z,48.08
2019-04-07T14:59:45.243Z,48.43
2019-04-07T15:02:00.489Z,48.82
2019-04-07T15:04:07.022Z,48.97
2019-04-07T15:06:15.404Z,48.44
2019-04-07T15:08:32.908Z,48.72
2019-04-07T15:10:42.460Z,48.71
2019-04-07T15:12:52.995Z,48.67
2019-04-07T15:15:05.547Z,48.72
2019-04-07T15:17:11.037Z,48.13
2019-04-07T15:19:18.934Z,48.12
2019-04-07T15:21:27.643Z,48.26
2019-04-07T15:23:35.532Z,48.22
2019-04-07T15:25:46.000Z,48.32
2019-04-07T15:27:56.406Z,49.19
2019-04-07T15:30:02.421Z,49.50
2019-04-07T15:32:10.612Z,49.59
2019-04-07T15:34:18.729Z,49.74
2019-04-07T15:36:27.540Z,50.03
2019-04-07T15:38:35.629Z,50.02
2019-04-07T15:40:44.761Z,50.69
2019-04-07T15:42:52.666Z,51.05
2019-04-07T15:45:02.345Z,50.57
2019-04-07T15:47:11.407Z,51.37
2019-04-07T15:49:19.299Z,51.69
2019-04-07T15:51:27.095Z,50.90
2019-04-07T15:53:34.979Z,50.73
2019-04-07T15:55:49.887Z,50.78
2019-04-07T15:57:55.334Z,51.65
2019-04-07T16:00:03.903Z,51.59
2019-04-07T16:02:14.250Z,51.21
2019-04-07T16:04:27.810Z,51.23
2019-04-07T16:06:34.853Z,51.37
2019-04-07T16:08:41.975Z,51.64
2019-04-07T16:10:52.054Z,51.45
2019-04-07T16:12:59.821Z,51.85
2019-04-07T16:15:09.678Z,51.30
2019-04-07T16:17:17.431Z,51.57
2019-04-07T16:19:37.272Z,51.95
2019-04-07T16:21:34.847Z,52.41
2019-04-07T16:23:42.947Z,52.32
2019-04-07T16:25:51.235Z,52.65
2019-04-07T16:28:00.321Z,52.36
2019-04-07T16:30:11.020Z,52.64
2019-04-07T16:32:19.617Z,52.91
2019-04-07T16:34:28.309Z,52.68
2019-04-07T16:36:36.651Z,52.92
2019-04-07T16:38:44.602Z,53.11
2019-04-07T16:40:52.719Z,53.69
2019-04-07T16:43:09.906Z,54.02
2019-04-07T16:45:13.771Z,53.95
2019-04-07T16:47:24.366Z,53.58
2019-04-07T16:49:29.286Z,54.36
2019-04-07T16:51:37.079Z,55.05
2019-04-07T16:53:44.842Z,55.81
2019-04-07T16:55:55.207Z,56.57
2019-04-07T16:58:03.206Z,56.63
2019-04-07T17:00:15.302Z,56.52
2019-04-07T17:02:24.113Z,56.32
2019-04-07T17:04:32.247Z,56.26
2019-04-07T17:06:40.197Z,56.21
2019-04-07T17:08:51.200Z,56.22
2019-04-07T17:10:59.582Z,56.26
2019-04-07T17:13:16.883Z,56.33
2019-04-07T17:15:17.770Z,56.30
2019-04-07T17:17:25.653Z,56.29
2019-04-07T17:19:35.545Z,56.41
2019-04-07T17:21:43.133Z,56.85
2019-04-07T17:23:55.373Z,57.11
2019-04-07T17:26:03.857Z,57.15
2019-04-07T17:28:12.110Z,57.30
2019-04-07T17:30:24.230Z,57.53
2019-04-07T17:32:34.735Z,57.64
2019-04-07T17:34:42.739Z,57.91
2019-04-07T17:36:55.378Z,58.14
2019-04-07T17:39:18.556Z,58.59
2019-04-07T17:41:26.592Z,58.97
2019-04-07T17:43:51.643Z,59.07
2019-04-07T17:46:01.995Z,59.29
2019-04-07T17:48:11.655Z,59.89
2019-04-07T17:50:30.356Z,60.08
2019-04-07T17:52:42.427Z,60.21
2019-04-07T17:55:06.279Z,60.20
2019-04-07T17:57:34.842Z,60.65
2019-04-07T17:59:53.603Z,60.79
2019-04-07T18:02:10.680Z,60.97
2019-04-07T18:04:23.027Z,61.13
2019-04-07T18:06:36.599Z,61.39
2019-04-07T18:09:07.949Z,61.74
2019-04-07T18:11:17.668Z,62.00
2019-04-07T18:13:49.377Z,62.53
2019-04-07T18:16:12.175Z,62.36
2019-04-07T18:18:26.328Z,62.59
2019-04-07T18:20:39.558Z,62.69
2019-04-07T18:22:45.494Z,63.15
2019-04-07T18:25:02.787Z,63.84
2019-04-07T18:27:25.305Z,64.55
2019-04-07T18:29:38.383Z,65.46
2019-04-07T18:31:57.855Z,68.33
2019-04-07T18:34:16.033Z,68.80
2019-04-07T18:36:41.687Z,70.43
2019-04-07T18:39:03.144Z,71.17
2019-04-07T18:41:34.093Z,71.24
2019-04-07T18:44:02.495Z,70.96
2019-04-07T18:46:20.154Z,70.22
2019-04-07T18:48:32.330Z,68.96
2019-04-07T18:50:43.316Z,68.34
2019-04-07T18:52:57.192Z,68.24
2019-04-07T18:55:18.172Z,68.02
2019-04-07T18:57:35.973Z,67.96
2019-04-07T18:59:49.741Z,68.00
2019-04-07T19:02:11.053Z,68.23
2019-04-07T19:04:28.109Z,67.94
2019-04-07T19:06:46.080Z,67.51
2019-04-07T19:08:58.310Z,67.51
2019-04-07T19:11:11.981Z,67.56
2019-04-07T19:13:24.725Z,67.62
2019-04-07T19:15:31.105Z,67.91
2019-04-07T19:17:40.623Z,68.09
2019-04-07T19:19:52.594Z,68.09
2019-04-07T19:22:18.023Z,68.23
2019-04-07T19:24:35.367Z,68.30
2019-04-07T19:26:54.638Z,68.19
2019-04-07T19:29:08.558Z,68.25
2019-04-07T19:31:19.549Z,68.17
2019-04-07T19:33:35.628Z,68.47
2019-04-07T19:35:49.760Z,68.58
2019-04-07T19:38:04.954Z,68.88
2019-04-07T19:40:20.935Z,69.25
2019-04-07T19:42:48.229Z,69.59
2019-04-07T19:45:04.364Z,69.60
2019-04-07T19:47:20.676Z,69.31
2019-04-07T19:49:29.364Z,69.09
2019-04-07T19:51:41.654Z,69.07
2019-04-07T19:54:03.237Z,69.15
2019-04-07T19:56:29.393Z,69.34
2019-04-07T19:58:42.630Z,69.52
2019-04-07T20:00:58.150Z,69.58
2019-04-07T20:03:13.574Z,69.57
2019-04-07T20:05:26.115Z,69.49
2019-04-07T20:07:52.999Z,69.35
2019-04-07T20:10:16.551Z,69.82
2019-04-07T20:12:29.668Z,70.17
2019-04-07T20:14:51.991Z,70.45
2019-04-07T20:17:00.036Z,70.77
2019-04-07T20:19:13.187Z,70.90
2019-04-07T20:21:39.078Z,71.01
2019-04-07T20:24:03.623Z,71.74
2019-04-07T20:26:21.510Z,71.46
2019-04-07T20:28:34.313Z,71.23
2019-04-07T20:31:02.620Z,71.15
2019-04-07T20:33:09.829Z,70.96
2019-04-07T20:35:27.030Z,70.84
2019-04-07T20:37:42.390Z,70.98
2019-04-07T20:40:05.225Z,71.11
2019-04-07T20:42:24.350Z,71.16
2019-04-07T20:45:02.377Z,71.37
2019-04-07T20:47:21.475Z,71.44
2019-04-07T20:49:48.913Z,71.46
2019-04-07T20:52:12.722Z,71.57
2019-04-07T20:54:33.866Z,71.51
2019-04-07T20:56:51.860Z,71.24
2019-04-07T20:59:18.291Z,71.24
2019-04-07T21:01:53.984Z,71.25
2019-04-07T21:04:11.288Z,71.12
2019-04-07T21:06:36.643Z,71.15
2019-04-07T21:09:03.813Z,71.43
2019-04-07T21:11:19.302Z,71.40
2019-04-07T21:13:47.113Z,71.53
2019-04-07T21:15:57.346Z,71.88
2019-04-07T21:18:11.185Z,71.89
2019-04-07T21:20:20.526Z,72.27
2019-04-07T21:22:35.545Z,72.38
2019-04-07T21:24:51.344Z,72.39
2019-04-07T21:27:01.265Z,72.29
2019-04-07T21:29:11.335Z,72.30
2019-04-07T21:31:21.446Z,72.60
2019-04-07T21:33:29.456Z,74.22
2019-04-07T21:35:38.971Z,74.13
2019-04-07T21:37:56.243Z,74.09
2019-04-07T21:40:22.715Z,74.01
2019-04-07T21:42:34.528Z,74.00
2019-04-07T21:44:42.158Z,73.70
2019-04-07T21:47:04.313Z,73.38
2019-04-07T21:49:12.005Z,73.23
2019-04-07T21:51:21.431Z,73.05
2019-04-07T21:53:32.018Z,73.13
2019-04-07T21:55:45.800Z,73.00
2019-04-07T21:57:56.833Z,72.91
2019-04-07T22:00:10.611Z,72.91
2019-04-07T22:02:24.316Z,73.06
2019-04-07T22:04:34.029Z,73.85
2019-04-07T22:06:59.730Z,75.18
2019-04-07T22:09:18.017Z,75.62
2019-04-07T22:11:28.931Z,78.09
2019-04-07T22:13:36.729Z,78.57
2019-04-07T22:15:49.316Z,78.00
2019-04-07T22:17:54.266Z,77.48
2019-04-07T22:20:02.760Z,77.17
2019-04-07T22:22:10.839Z,77.39
2019-04-07T22:24:18.910Z,77.34
2019-04-07T22:26:27.535Z,77.24
2019-04-07T22:28:35.483Z,76.78
2019-04-07T22:30:44.640Z,76.34
2019-04-07T22:32:53.106Z,75.90
2019-04-07T22:35:04.776Z,75.51
2019-04-07T22:37:12.171Z,75.09
2019-04-07T22:39:20.534Z,74.77
2019-04-07T22:41:28.296Z,74.44
2019-04-07T22:43:36.129Z,74.34
2019-04-07T22:45:53.162Z,74.22
2019-04-07T22:47:53.752Z,74.27
2019-04-07T22:50:04.457Z,74.25
2019-04-07T22:52:11.767Z,74.12
2019-04-07T22:54:19.700Z,73.96
2019-04-07T22:56:27.933Z,73.89
2019-04-07T22:58:36.127Z,73.83
2019-04-07T23:00:44.503Z,73.80
2019-04-07T23:02:52.526Z,73.76
2019-04-07T23:05:00.836Z,73.60
2019-04-07T23:07:09.825Z,73.26
2019-04-07T23:09:18.200Z,72.97
2019-04-07T23:11:25.880Z,72.70
2019-04-07T23:13:34.027Z,72.75
2019-04-07T23:15:45.618Z,73.13
2019-04-07T23:17:53.445Z,73.05
2019-04-07T23:20:02.351Z,72.92
2019-04-07T23:22:10.262Z,72.95
2019-04-07T23:24:19.281Z,73.10
2019-04-07T23:26:27.048Z,73.15
2019-04-07T23:28:34.858Z,73.32
2019-04-07T23:30:42.972Z,73.29
2019-04-07T23:32:50.877Z,73.50
2019-04-07T23:34:58.584Z,73.55
2019-04-07T23:37:06.263Z,73.43
2019-04-07T23:39:13.950Z,73.37
2019-04-07T23:41:22.192Z,73.36
2019-04-07T23:43:30.134Z,73.38
2019-04-07T23:45:38.028Z,73.44
2019-04-07T23:47:45.827Z,73.53
2019-04-07T23:49:54.581Z,73.65
2019-04-07T23:52:02.736Z,73.73
2019-04-07T23:54:14.129Z,73.70
2019-04-07T23:56:22.119Z,73.96
2019-04-07T23:58:29.775Z,74.46
